createdAt,value
2018-11-10T00:01:45.141Z,100102.59
2018-11-10T00:04:13.484Z,100100.30
2018-11-10T00:06:41.682Z,100090.41
2018-11-10T00:09:09.897Z,100091.92
2018-11-10T00:11:38.121Z,100081.81
2018-11-10T00:14:06.474Z,100089.19
2018-11-10T00:16:34.872Z,100087.15
2018-11-10T00:19:03.070Z,100082.42
2018-11-10T00:21:31.413Z,100073.83
2018-11-10T00:23:59.629Z,100069.43
2018-11-10T00:26:28.182Z,100065.28
2018-11-10T00:28:56.658Z,100060.86
2018-11-10T00:31:24.912Z,100052.98
2018-11-10T00:33:53.153Z,100043.45
2018-11-10T00:36:21.412Z,100049.44
2018-11-10T00:38:49.739Z,100055.72
2018-11-10T00:41:18.023Z,100050.89
2018-11-10T00:43:46.259Z,100057.26
2018-11-10T00:46:14.777Z,100050.52
2018-11-10T00:48:43.019Z,100050.65
2018-11-10T00:51:11.290Z,100049.42
2018-11-10T00:53:39.538Z,100061.85
2018-11-10T00:56:07.798Z,100050.57
2018-11-10T00:58:36.052Z,100045.42
2018-11-10T01:01:04.389Z,100044.56
2018-11-10T01:03:33.734Z,100040.28
2018-11-10T01:06:01.994Z,100050.39
2018-11-10T01:08:30.237Z,100036.69
2018-11-10T01:10:58.529Z,100033.34
2018-11-10T01:13:26.758Z,100032.56
2018-11-10T01:15:55.048Z,100028.14
2018-11-10T01:18:23.266Z,100032.73
2018-11-10T01:20:51.529Z,100020.37
2018-11-10T01:23:19.754Z,100014.41
2018-11-10T01:25:48.046Z,100015.06
2018-11-10T01:28:16.386Z,100014.48
2018-11-10T01:30:44.625Z,100015.16
2018-11-10T01:33:12.850Z,100022.84
2018-11-10T01:35:41.124Z,100024.13
2018-11-10T01:38:09.338Z,100019.73
2018-11-10T01:40:37.574Z,100014.39
2018-11-10T01:43:05.801Z,100001.25
2018-11-10T01:45:34.028Z,99997.83
2018-11-10T01:48:02.276Z,99999.48
2018-11-10T01:50:30.497Z,99992.06
2018-11-10T01:52:58.728Z,99985.36
2018-11-10T01:55:26.948Z,99981.19
2018-11-10T01:57:55.250Z,99977.68
2018-11-10T02:00:23.477Z,99974.51
2018-11-10T02:02:51.673Z,99965.88
2018-11-10T02:05:19.922Z,99964.87
2018-11-10T02:07:48.141Z,99947.98
2018-11-10T02:10:16.382Z,99954.73
2018-11-10T02:12:44.624Z,99946.91
2018-11-10T02:15:14.787Z,99949.20
2018-11-10T02:17:43.026Z,99939.70
2018-11-10T02:20:12.491Z,99940.22
2018-11-10T02:22:40.829Z,99946.29
2018-11-10T02:25:10.247Z,99946.71
2018-11-10T02:27:38.495Z,99941.86
2018-11-10T02:30:08.319Z,99940.22
2018-11-10T02:32:36.537Z,99942.02
2018-11-10T02:35:06.810Z,99942.41
2018-11-10T02:37:35.118Z,99928.48
2018-11-10T02:40:03.569Z,99926.55
2018-11-10T02:42:31.778Z,99919.28
2018-11-10T02:44:59.989Z,99917.81
2018-11-10T02:47:29.293Z,99907.45
2018-11-10T02:49:57.493Z,99901.30
2018-11-10T02:52:25.700Z,99909.70
2018-11-10T02:54:53.920Z,99899.44
2018-11-10T02:57:22.130Z,99897.71
2018-11-10T02:59:50.343Z,99898.16
2018-11-10T03:02:18.564Z,99891.47
2018-11-10T03:04:46.933Z,99884.25
2018-11-10T03:07:15.209Z,99885.53
2018-11-10T03:09:43.442Z,99872.85
2018-11-10T03:12:11.653Z,99871.81
2018-11-10T03:14:39.940Z,99869.72
2018-11-10T03:17:08.177Z,99860.84
2018-11-10T03:19:36.389Z,99859.42
2018-11-10T03:22:04.658Z,99863.50
2018-11-10T03:24:32.878Z,99864.41
2018-11-10T03:27:01.098Z,99863.79
2018-11-10T03:29:29.407Z,99866.08
2018-11-10T03:31:57.617Z,99857.90
2018-11-10T03:34:25.808Z,99862.52
2018-11-10T03:36:54.075Z,99861.38
2018-11-10T03:39:22.290Z,99865.28
2018-11-10T03:41:50.505Z,99866.59
2018-11-10T03:44:18.738Z,99864.81
2018-11-10T03:46:46.954Z,99868.72
2018-11-10T03:49:15.289Z,99871.19
2018-11-10T03:51:43.494Z,99861.77
2018-11-10T03:54:11.735Z,99872.02
2018-11-10T03:56:39.944Z,99855.67
2018-11-10T03:59:08.167Z,99857.13
2018-11-10T04:01:36.383Z,99864.87
2018-11-10T04:04:04.593Z,99860.95
2018-11-10T04:06:32.825Z,99861.73
2018-11-10T04:09:01.033Z,99860.86
2018-11-10T04:11:29.240Z,99849.77
2018-11-10T04:13:57.522Z,99840.92
2018-11-10T04:16:25.742Z,99846.69
2018-11-10T04:18:53.971Z,99834.79
2018-11-10T04:21:22.162Z,99833.27
2018-11-10T04:23:50.387Z,99836.66
2018-11-10T04:26:18.593Z,99835.15
2018-11-10T04:28:46.806Z,99830.08
2018-11-10T04:31:15.066Z,99831.80
2018-11-10T04:33:43.291Z,99839.15
2018-11-10T04:36:11.511Z,99833.40
2018-11-10T04:38:39.778Z,99829.66
2018-11-10T04:41:08.074Z,99822.72
2018-11-10T04:43:36.462Z,99832.39
2018-11-10T04:46:04.678Z,99833.34
2018-11-10T04:48:32.932Z,99819.08
2018-11-10T04:51:01.149Z,99821.78
2018-11-10T04:53:29.371Z,99811.58
2018-11-10T04:55:57.581Z,99817.21
2018-11-10T04:58:25.790Z,99806.98
2018-11-10T05:00:54.035Z,99803.48
2018-11-10T05:03:22.222Z,99803.93
2018-11-10T05:05:50.454Z,99796.28
2018-11-10T05:08:18.686Z,99801.80
2018-11-10T05:10:46.919Z,99802.73
2018-11-10T05:13:15.244Z,99801.31
2018-11-10T05:15:43.466Z,99799.51
2018-11-10T05:18:11.676Z,99794.55
2018-11-10T05:20:40.982Z,99788.00
2018-11-10T05:23:09.230Z,99791.91
2018-11-10T05:25:37.449Z,99796.66
2018-11-10T05:28:05.908Z,99794.52
2018-11-10T05:30:34.090Z,99789.30
2018-11-10T05:33:02.308Z,99795.03
2018-11-10T05:35:30.535Z,99790.84
2018-11-10T05:37:58.778Z,99796.06
2018-11-10T05:40:27.007Z,99795.73
2018-11-10T05:42:55.198Z,99787.20
2018-11-10T05:45:23.638Z,99785.80
2018-11-10T05:47:51.878Z,99783.52
2018-11-10T05:50:20.148Z,99774.59
2018-11-10T05:52:49.418Z,99775.08
2018-11-10T05:55:17.638Z,99778.31
2018-11-10T05:57:45.837Z,99768.20
2018-11-10T06:00:14.216Z,99769.50
2018-11-10T06:02:42.861Z,99774.81
2018-11-10T06:05:11.762Z,99771.61
2018-11-10T06:07:40.136Z,99770.09
2018-11-10T06:10:10.557Z,99770.45
2018-11-10T06:12:38.781Z,99771.71
2018-11-10T06:15:08.734Z,99773.55
2018-11-10T06:17:36.972Z,99776.11
2018-11-10T06:20:06.858Z,99779.67
2018-11-10T06:22:36.101Z,99781.01
2018-11-10T06:25:04.573Z,99789.70
2018-11-10T06:27:32.837Z,99790.73
2018-11-10T06:30:01.061Z,99804.25
2018-11-10T06:32:29.425Z,99807.52
2018-11-10T06:34:59.109Z,99797.20
2018-11-10T06:37:27.436Z,99809.35
2018-11-10T06:39:55.642Z,99819.43
2018-11-10T06:42:23.882Z,99811.61
2018-11-10T06:44:53.165Z,99823.43
2018-11-10T06:47:21.389Z,99827.27
2018-11-10T06:49:49.763Z,99831.56
2018-11-10T06:52:17.962Z,99842.13
2018-11-10T06:54:46.174Z,99837.28
2018-11-10T06:57:14.386Z,99845.11
2018-11-10T06:59:42.598Z,99839.80
2018-11-10T07:02:10.859Z,99843.72
2018-11-10T07:04:39.118Z,99844.69
2018-11-10T07:07:07.313Z,99848.28
2018-11-10T07:09:35.608Z,99853.09
2018-11-10T07:12:03.747Z,99863.39
2018-11-10T07:14:31.930Z,99849.79
2018-11-10T07:17:00.209Z,99853.88
2018-11-10T07:19:28.535Z,99844.66
2018-11-10T07:21:56.749Z,99844.05
2018-11-10T07:24:26.316Z,99836.30
2018-11-10T07:27:08.147Z,99833.99
2018-11-10T07:29:40.751Z,99842.80
2018-11-10T07:32:10.115Z,99849.69
2018-11-10T07:34:38.323Z,99844.78
2018-11-10T07:37:06.705Z,99841.28
2018-11-10T07:39:35.845Z,99848.34
2018-11-10T07:42:10.734Z,99842.97
2018-11-10T07:44:39.010Z,99843.45
2018-11-10T07:47:10.797Z,99847.87
2018-11-10T07:49:39.095Z,99847.86
2018-11-10T07:52:07.316Z,99852.73
2018-11-10T07:54:35.612Z,99853.41
2018-11-10T07:57:03.845Z,99861.61
2018-11-10T07:59:32.167Z,99851.11
2018-11-10T08:02:03.917Z,99847.12
2018-11-10T08:04:36.017Z,99847.59
2018-11-10T08:07:05.378Z,99847.78
2018-11-10T08:09:35.624Z,99852.62
2018-11-10T08:12:04.648Z,99852.22
2018-11-10T08:14:33.966Z,99850.56
2018-11-10T08:17:02.509Z,99833.55
2018-11-10T08:19:36.423Z,99840.44
2018-11-10T08:22:04.750Z,99839.75
2018-11-10T08:24:32.997Z,99843.72
2018-11-10T08:27:05.538Z,99841.85
2018-11-10T08:29:35.850Z,99837.40
2018-11-10T08:32:04.224Z,99829.05
2018-11-10T08:34:32.701Z,99835.54
2018-11-10T08:37:00.976Z,99838.31
2018-11-10T08:39:29.512Z,99846.67
2018-11-10T08:41:57.745Z,99854.87
2018-11-10T08:44:25.978Z,99872.72
2018-11-10T08:46:54.445Z,99859.31
2018-11-10T08:49:22.829Z,99864.72
2018-11-10T08:51:51.018Z,99866.08
2018-11-10T08:54:19.308Z,99866.38
2018-11-10T08:56:47.636Z,99870.56
2018-11-10T08:59:15.936Z,99864.87
2018-11-10T09:01:44.086Z,99867.50
2018-11-10T09:04:12.643Z,99865.78
2018-11-10T09:06:40.834Z,99853.83
2018-11-10T09:09:10.141Z,99853.00
2018-11-10T09:11:38.374Z,99865.55
2018-11-10T09:14:06.602Z,99861.20
2018-11-10T09:16:34.845Z,99868.41
2018-11-10T09:19:03.099Z,99864.83
2018-11-10T09:21:31.341Z,99866.08
2018-11-10T09:23:59.530Z,99871.35
2018-11-10T09:26:27.817Z,99872.91
2018-11-10T09:28:56.141Z,99873.13
2018-11-10T09:31:24.342Z,99864.25
2018-11-10T09:33:52.546Z,99869.30
2018-11-10T09:36:20.796Z,99870.85
2018-11-10T09:38:49.033Z,99862.14
2018-11-10T09:41:17.249Z,99860.16
2018-11-10T09:43:45.450Z,99856.76
2018-11-10T09:46:13.637Z,99854.48
2018-11-10T09:48:41.926Z,99864.00
2018-11-10T09:51:10.126Z,99859.44
2018-11-10T09:53:38.353Z,99856.17
2018-11-10T09:56:06.664Z,99853.73
2018-11-10T09:58:34.883Z,99852.77
2018-11-10T10:01:03.151Z,99850.07
2018-11-10T10:03:31.274Z,99851.63
2018-11-10T10:05:59.470Z,99853.78
2018-11-10T10:08:27.680Z,99849.25
2018-11-10T10:10:55.922Z,99849.70
2018-11-10T10:13:24.118Z,99845.67
2018-11-10T10:15:52.383Z,99849.97
2018-11-10T10:18:20.582Z,99850.83
2018-11-10T10:20:48.798Z,99865.57
2018-11-10T10:23:17.006Z,99856.20
2018-11-10T10:25:45.223Z,99851.45
2018-11-10T10:28:13.442Z,99856.83
2018-11-10T10:30:41.628Z,99853.95
2018-11-10T10:33:10.399Z,99854.88
2018-11-10T10:35:38.850Z,99844.28
2018-11-10T10:38:06.971Z,99855.43
2018-11-10T10:40:35.194Z,99848.49
2018-11-10T10:43:03.521Z,99851.55
2018-11-10T10:45:31.662Z,99850.34
2018-11-10T10:48:14.094Z,99848.49
2018-11-10T10:50:42.384Z,99840.78
2018-11-10T10:53:10.569Z,99845.70
2018-11-10T10:55:38.790Z,99843.84
2018-11-10T10:58:07.265Z,99835.13
2018-11-10T11:00:40.709Z,99827.47
2018-11-10T11:03:14.241Z,99826.78
2018-11-10T11:05:43.524Z,99827.38
2018-11-10T11:08:11.747Z,99820.94
2018-11-10T11:10:39.943Z,99816.19
2018-11-10T11:13:08.136Z,99808.84
2018-11-10T11:15:36.480Z,99808.39
2018-11-10T11:18:04.742Z,99807.72
2018-11-10T11:20:32.941Z,99817.34
2018-11-10T11:23:01.146Z,99813.89
2018-11-10T11:25:29.362Z,99811.81
2018-11-10T11:27:57.618Z,99807.09
2018-11-10T11:30:25.837Z,99807.06
2018-11-10T11:32:54.018Z,99800.11
2018-11-10T11:35:22.273Z,99799.01
2018-11-10T11:37:50.422Z,99805.53
2018-11-10T11:40:18.618Z,99806.39
2018-11-10T11:42:46.813Z,99802.38
2018-11-10T11:45:15.014Z,99802.30
2018-11-10T11:47:43.796Z,99796.50
2018-11-10T11:50:13.306Z,99788.59
2018-11-10T11:52:42.091Z,99788.66
2018-11-10T11:55:11.018Z,99790.52
2018-11-10T11:57:39.346Z,99797.41
2018-11-10T12:00:09.891Z,99785.41
2018-11-10T12:02:38.257Z,99775.92
2018-11-10T12:05:07.333Z,99772.26
2018-11-10T12:07:35.549Z,99772.23
2018-11-10T12:10:03.797Z,99766.70
2018-11-10T12:12:31.984Z,99768.69
2018-11-10T12:15:00.158Z,99756.37
2018-11-10T12:17:28.358Z,99760.18
2018-11-10T12:19:56.545Z,99759.33
2018-11-10T12:22:24.754Z,99753.97
2018-11-10T12:24:56.464Z,99758.74
2018-11-10T12:27:24.692Z,99759.98
2018-11-10T12:29:52.854Z,99749.08
2018-11-10T12:32:21.134Z,99750.80
2018-11-10T12:34:49.379Z,99749.77
2018-11-10T12:37:17.576Z,99738.02
2018-11-10T12:39:45.794Z,99744.10
2018-11-10T12:42:14.008Z,99733.20
2018-11-10T12:44:42.299Z,99734.72
2018-11-10T12:47:10.510Z,99732.96
2018-11-10T12:49:38.706Z,99733.09
2018-11-10T12:52:06.912Z,99723.91
2018-11-10T12:54:35.098Z,99725.47
2018-11-10T12:57:03.510Z,99721.78
2018-11-10T12:59:31.903Z,99722.29
2018-11-10T13:02:00.114Z,99721.95
2018-11-10T13:04:28.329Z,99726.85
2018-11-10T13:06:56.584Z,99723.38
2018-11-10T13:09:24.726Z,99727.63
2018-11-10T13:11:53.054Z,99720.95
2018-11-10T13:14:21.209Z,99721.50
2018-11-10T13:16:49.385Z,99720.39
2018-11-10T13:19:17.601Z,99722.48
2018-11-10T13:21:45.906Z,99723.38
2018-11-10T13:24:14.172Z,99726.81
2018-11-10T13:26:42.326Z,99723.96
2018-11-10T13:29:10.531Z,99717.20
2018-11-10T13:31:38.922Z,99715.89
2018-11-10T13:34:07.041Z,99713.20
2018-11-10T13:36:35.253Z,99706.74
2018-11-10T13:39:03.533Z,99713.13
2018-11-10T13:41:31.733Z,99721.76
2018-11-10T13:43:59.976Z,99709.20
2018-11-10T13:46:28.125Z,99713.95
2018-11-10T13:48:56.331Z,99713.46
2018-11-10T13:51:24.719Z,99717.88
2018-11-10T13:53:52.756Z,99708.67
2018-11-10T13:56:20.946Z,99710.44
2018-11-10T13:58:49.235Z,99711.81
2018-11-10T14:01:17.467Z,99713.05
2018-11-10T14:03:45.653Z,99723.09
2018-11-10T14:06:13.871Z,99720.36
2018-11-10T14:08:42.085Z,99713.03
2018-11-10T14:11:10.321Z,99707.44
2018-11-10T14:13:38.550Z,99703.29
2018-11-10T14:16:06.792Z,99706.49
2018-11-10T14:18:34.987Z,99694.98
2018-11-10T14:21:03.219Z,99699.02
2018-11-10T14:23:31.425Z,99694.09
2018-11-10T14:25:59.647Z,99679.34
2018-11-10T14:28:27.857Z,99676.34
2018-11-10T14:30:56.044Z,99671.61
2018-11-10T14:33:24.277Z,99674.63
2018-11-10T14:35:52.490Z,99676.23
2018-11-10T14:38:20.685Z,99680.33
2018-11-10T14:40:48.881Z,99680.16
2018-11-10T14:43:17.098Z,99677.80
2018-11-10T14:45:45.325Z,99676.89
2018-11-10T14:48:13.510Z,99680.21
2018-11-10T14:50:41.710Z,99678.59
2018-11-10T14:53:10.113Z,99677.30
2018-11-10T14:55:38.142Z,99701.64
2018-11-10T14:58:06.593Z,99700.20
2018-11-10T15:00:34.794Z,99695.27
2018-11-10T15:03:03.013Z,99698.78
2018-11-10T15:05:31.277Z,99702.83
2018-11-10T15:07:59.438Z,99710.67
2018-11-10T15:10:27.638Z,99718.81
2018-11-10T15:12:55.849Z,99723.16
2018-11-10T15:15:24.034Z,99724.23
2018-11-10T15:17:52.248Z,99729.11
2018-11-10T15:20:20.813Z,99715.65
2018-11-10T15:22:49.034Z,99715.42
2018-11-10T15:25:19.732Z,99715.12
2018-11-10T15:27:47.908Z,99715.24
2018-11-10T15:30:17.358Z,99719.01
2018-11-10T15:32:46.270Z,99730.58
2018-11-10T15:35:15.770Z,99728.97
2018-11-10T15:37:45.233Z,99728.59
2018-11-10T15:40:14.292Z,99726.61
2018-11-10T15:42:42.547Z,99729.97
2018-11-10T15:45:11.942Z,99726.24
2018-11-10T15:47:40.326Z,99721.72
2018-11-10T15:50:09.731Z,99727.73
2018-11-10T15:52:37.909Z,99723.62
2018-11-10T15:55:07.449Z,99723.84
2018-11-10T15:57:36.185Z,99722.62
2018-11-10T16:00:04.569Z,99717.91
2018-11-10T16:02:32.823Z,99726.77
2018-11-10T16:05:01.039Z,99725.76
2018-11-10T16:07:29.255Z,99730.02
2018-11-10T16:09:57.844Z,99739.05
2018-11-10T16:12:26.081Z,99733.15
2018-11-10T16:14:54.394Z,99738.23
2018-11-10T16:17:22.622Z,99732.22
2018-11-10T16:19:50.930Z,99742.97
2018-11-10T16:22:19.182Z,99728.21
2018-11-10T16:24:48.539Z,99724.59
2018-11-10T16:27:16.910Z,99728.10
2018-11-10T16:29:45.093Z,99736.28
2018-11-10T16:32:13.346Z,99737.59
2018-11-10T16:34:41.552Z,99746.33
2018-11-10T16:37:09.880Z,99745.29
2018-11-10T16:39:38.070Z,99749.23
2018-11-10T16:42:06.913Z,99746.73
2018-11-10T16:44:35.204Z,99752.59
2018-11-10T16:47:03.438Z,99749.25
2018-11-10T16:49:31.766Z,99753.16
2018-11-10T16:52:00.134Z,99755.36
2018-11-10T16:54:28.505Z,99747.92
2018-11-10T16:56:56.846Z,99750.73
2018-11-10T16:59:25.159Z,99742.97
2018-11-10T17:01:53.509Z,99737.09
2018-11-10T17:04:21.751Z,99746.89
2018-11-10T17:06:49.962Z,99756.11
2018-11-10T17:09:18.221Z,99756.97
2018-11-10T17:11:46.470Z,99755.23
2018-11-10T17:14:14.808Z,99754.95
2018-11-10T17:16:43.257Z,99754.82
2018-11-10T17:19:11.488Z,99752.33
2018-11-10T17:21:40.144Z,99739.05
2018-11-10T17:24:08.349Z,99749.87
2018-11-10T17:26:36.573Z,99753.84
2018-11-10T17:29:04.859Z,99757.76
2018-11-10T17:31:33.138Z,99756.97
2018-11-10T17:34:01.370Z,99768.56
2018-11-10T17:36:29.662Z,99770.52
2018-11-10T17:38:57.891Z,99776.41
2018-11-10T17:41:26.170Z,99771.55
2018-11-10T17:43:54.427Z,99767.80
2018-11-10T17:46:22.969Z,99772.59
2018-11-10T17:48:51.274Z,99772.14
2018-11-10T17:51:19.525Z,99765.30
2018-11-10T17:53:47.774Z,99759.37
2018-11-10T17:56:16.610Z,99757.11
2018-11-10T17:58:44.884Z,99762.30
2018-11-10T18:01:13.133Z,99759.78
2018-11-10T18:03:41.444Z,99772.55
2018-11-10T18:06:09.658Z,99760.57
2018-11-10T18:08:37.865Z,99755.04
2018-11-10T18:11:06.269Z,99760.88
2018-11-10T18:13:34.517Z,99758.95
2018-11-10T18:16:02.778Z,99752.92
2018-11-10T18:18:31.075Z,99758.95
2018-11-10T18:20:59.494Z,99761.58
2018-11-10T18:23:27.745Z,99756.13
2018-11-10T18:25:56.009Z,99750.33
2018-11-10T18:28:24.298Z,99753.36
2018-11-10T18:30:52.611Z,99743.16
2018-11-10T18:33:20.812Z,99752.84
2018-11-10T18:35:49.279Z,99753.69
2018-11-10T18:38:18.370Z,99754.63
2018-11-10T18:40:46.594Z,99756.50
2018-11-10T18:43:14.841Z,99761.55
2018-11-10T18:45:43.141Z,99764.94
2018-11-10T18:48:11.361Z,99769.52
2018-11-10T18:50:39.555Z,99771.47
2018-11-10T18:55:34.255Z,99770.73
2018-11-10T18:58:02.580Z,99772.72
2018-11-10T19:00:30.821Z,99766.66
2018-11-10T19:02:59.098Z,99762.38
2018-11-10T19:05:27.397Z,99766.88
2018-11-10T19:07:55.742Z,99767.36
2018-11-10T19:10:23.949Z,99768.35
2018-11-10T19:12:52.243Z,99776.18
2018-11-10T19:15:21.173Z,99767.77
2018-11-10T19:17:49.653Z,99771.58
2018-11-10T19:20:18.471Z,99764.52
2018-11-10T19:22:46.796Z,99772.67
2018-11-10T19:25:15.290Z,99767.66
2018-11-10T19:27:43.561Z,99774.95
2018-11-10T19:30:15.838Z,99772.87
2018-11-10T19:32:44.527Z,99776.73
2018-11-10T19:35:12.861Z,99766.54
2018-11-10T19:37:41.124Z,99769.59
2018-11-10T19:40:10.177Z,99769.36
2018-11-10T19:42:38.480Z,99768.45
2018-11-10T19:45:07.602Z,99772.95
2018-11-10T19:47:35.854Z,99765.41
2018-11-10T19:50:04.312Z,99769.83
2018-11-10T19:52:32.518Z,99775.31
2018-11-10T19:55:00.787Z,99779.70
2018-11-10T19:57:29.074Z,99786.25
2018-11-10T19:59:57.361Z,99788.36
2018-11-10T20:02:25.542Z,99792.84
2018-11-10T20:04:53.829Z,99789.61
2018-11-10T20:07:22.171Z,99777.54
2018-11-10T20:09:50.346Z,99773.09
2018-11-10T20:12:18.519Z,99774.98
2018-11-10T20:14:46.801Z,99769.21
2018-11-10T20:17:15.069Z,99763.11
2018-11-10T20:19:43.543Z,99760.02
2018-11-10T20:22:11.753Z,99766.60
2018-11-10T20:24:39.985Z,99755.96
2018-11-10T20:27:08.370Z,99765.45
2018-11-10T20:29:36.669Z,99774.42
2018-11-10T20:32:05.016Z,99775.41
2018-11-10T20:34:33.434Z,99778.02
2018-11-10T20:37:01.748Z,99783.20
2018-11-10T20:39:29.990Z,99776.59
2018-11-10T20:41:58.277Z,99777.69
2018-11-10T20:44:26.553Z,99775.31
2018-11-10T20:46:54.896Z,99771.64
2018-11-10T20:49:23.093Z,99782.25
2018-11-10T20:51:51.419Z,99789.72
2018-11-10T20:54:19.830Z,99790.52
2018-11-10T20:56:48.186Z,99790.76
2018-11-10T20:59:16.448Z,99789.37
2018-11-10T21:01:44.751Z,99800.87
2018-11-10T21:04:13.235Z,99795.73
2018-11-10T21:06:41.461Z,99798.58
2018-11-10T21:09:12.092Z,99808.78
2018-11-10T21:11:40.405Z,99804.23
2018-11-10T21:14:09.402Z,99815.64
2018-11-10T21:16:37.768Z,99826.52
2018-11-10T21:19:06.355Z,99829.91
2018-11-10T21:21:34.693Z,99846.10
2018-11-10T21:24:03.013Z,99840.36
2018-11-10T21:26:31.437Z,99853.12
2018-11-10T21:28:59.845Z,99856.78
2018-11-10T21:31:28.446Z,99856.51
2018-11-10T21:33:57.128Z,99862.86
2018-11-10T21:36:25.395Z,99872.48
2018-11-10T21:38:53.641Z,99877.63
2018-11-10T21:41:22.001Z,99860.84
2018-11-10T21:43:50.383Z,99858.67
2018-11-10T21:46:18.566Z,99869.30
2018-11-10T21:48:46.753Z,99874.17
2018-11-10T21:51:14.961Z,99867.74
2018-11-10T21:53:43.414Z,99860.59
2018-11-10T21:56:11.614Z,99861.89
2018-11-10T21:58:39.825Z,99867.69
2018-11-10T22:01:08.089Z,99854.17
2018-11-10T22:03:36.469Z,99850.34
2018-11-10T22:06:05.113Z,99853.90
2018-11-10T22:08:33.360Z,99853.63
2018-11-10T22:11:01.676Z,99859.98
2018-11-10T22:13:30.215Z,99858.61
2018-11-10T22:15:58.544Z,99856.26
2018-11-10T22:18:27.316Z,99856.26
2018-11-10T22:20:55.562Z,99862.14
2018-11-10T22:23:23.813Z,99863.80
2018-11-10T22:25:52.169Z,99868.08
2018-11-10T22:28:20.485Z,99860.92
2018-11-10T22:30:48.824Z,99857.78
2018-11-10T22:33:17.069Z,99855.17
2018-11-10T22:35:45.318Z,99856.14
2018-11-10T22:38:13.657Z,99856.91
2018-11-10T22:40:41.862Z,99858.30
2018-11-10T22:43:10.157Z,99863.36
2018-11-10T22:45:38.447Z,99866.58
2018-11-10T22:48:06.767Z,99867.38
2018-11-10T22:50:34.979Z,99870.44
2018-11-10T22:53:03.282Z,99875.35
2018-11-10T22:55:31.513Z,99871.71
2018-11-10T22:57:59.790Z,99863.05
2018-11-10T23:00:28.415Z,99868.91
2018-11-10T23:02:58.890Z,99871.85
2018-11-10T23:05:27.202Z,99863.17
2018-11-10T23:07:55.610Z,99869.97
2018-11-10T23:10:23.964Z,99859.20
2018-11-10T23:12:53.094Z,99863.61
2018-11-10T23:15:21.418Z,99862.58
2018-11-10T23:17:49.922Z,99860.78
2018-11-10T23:27:18.941Z,99856.42
2018-11-10T23:29:49.263Z,99856.59
2018-11-10T23:32:39.732Z,99847.05
2018-11-10T23:35:15.835Z,99857.48
2018-11-10T23:37:54.278Z,99863.74
2018-11-10T23:40:30.845Z,99856.75
2018-11-10T23:45:53.432Z,99861.64
2018-11-10T23:48:28.634Z,99860.84
2018-11-10T23:51:19.893Z,99858.70
2018-11-10T23:53:48.144Z,99858.14
2018-11-10T23:56:28.486Z,99861.30
2018-11-10T23:59:04.045Z,99866.75
